Track Ехтанигов Темир

Time Latitude Longitude Accuracy (66% radius in meters) Altitude (meters) Speed (km/hour) Bearing (degrees) Battery (%) GPS flag
11:41:19 57.203980 60.118150 0 0 0 0 1 delete
11:41:18 57.203997 60.118122 0 0 0 0 1 delete
11:41:17 57.204018 60.118092 0 0 0 0 1 delete
11:41:16 57.204040 60.118059 0 0 0 0 1 delete
11:41:15 57.204063 60.118026 0 0 0 0 1 delete
11:41:14 57.204085 60.117992 0 0 0 0 1 delete
11:41:13 57.204106 60.117954 0 0 0 0 1 delete
11:41:12 57.204126 60.117916 0 0 0 0 1 delete
11:41:11 57.204146 60.117880 0 0 0 0 1 delete
11:41:10 57.204166 60.117845 0 0 0 0 1 delete
11:41:09 57.204186 60.117810 0 0 0 0 1 delete
11:41:08 57.204206 60.117773 0 0 0 0 1 delete
11:41:07 57.204229 60.117736 0 0 0 0 1 delete
11:41:06 57.204253 60.117697 0 0 0 0 1 delete
11:41:05 57.204276 60.117664 0 0 0 0 1 delete
11:41:04 57.204300 60.117631 0 0 0 0 1 delete
11:41:03 57.204322 60.117600 0 0 0 0 1 delete
11:41:02 57.204344 60.117566 0 0 0 0 1 delete
11:41:01 57.204365 60.117537 0 0 0 0 1 delete
11:41:00 57.204387 60.117511 0 0 0 0 1 delete
11:40:59 57.204411 60.117487 0 0 0 0 1 delete
11:40:58 57.204435 60.117462 0 0 0 0 1 delete
11:40:57 57.204464 60.117443 0 0 0 0 1 delete
11:40:56 57.204494 60.117422 0 0 0 0 1 delete
11:40:55 57.204526 60.117408 0 0 0 0 1 delete
11:40:54 57.204558 60.117391 0 0 0 0 1 delete
11:40:53 57.204590 60.117380 0 0 0 0 1 delete
11:40:52 57.204621 60.117371 0 0 0 0 1 delete
11:40:51 57.204653 60.117366 0 0 0 0 1 delete
11:40:50 57.204685 60.117369 0 0 0 0 1 delete
11:40:49 57.204715 60.117371 0 0 0 0 1 delete
11:40:48 57.204741 60.117378 0 0 0 0 1 delete
11:40:47 57.204768 60.117385 0 0 0 0 1 delete
11:40:46 57.204795 60.117391 0 0 0 0 1 delete
11:40:45 57.204820 60.117398 0 0 0 0 1 delete
11:40:44 57.204841 60.117397 0 0 0 0 1 delete
11:40:43 57.204856 60.117397 0 0 0 0 1 delete
11:40:42 57.204867 60.117390 0 0 0 0 1 delete
11:40:41 57.204873 60.117381 0 0 0 0 1 delete
11:40:40 57.204880 60.117370 0 0 0 0 1 delete
11:40:39 57.204882 60.117358 0 0 0 0 1 delete
11:40:38 57.204882 60.117341 0 0 0 0 1 delete
11:40:37 57.204878 60.117313 0 0 0 0 1 delete
11:40:36 57.204872 60.117281 0 0 0 0 1 delete
11:40:35 57.204866 60.117248 0 0 0 0 1 delete
11:40:34 57.204860 60.117216 0 0 0 0 1 delete
11:40:33 57.204853 60.117181 0 0 0 0 1 delete
11:40:32 57.204845 60.117146 0 0 0 0 1 delete
11:40:31 57.204836 60.117114 0 0 0 0 1 delete
11:40:30 57.204828 60.117086 0 0 0 0 1 delete